Time;durP1;ratioP1;P1;durP2;ratioP2;P2;SDS_P1;SDS_P2;PMS_P1;PMS_P2;Temp;Humidity;BMP_temperature;BMP_pressure;BME280_temperature;BME280_humidity;BME280_pressure;Samples;Min_cycle;Max_cycle;Signal;HPM_P1;HPM_P2
2024/01/14 00:00:12;;;;;;;39.05;15.57;;;;;;;3.06;100.00;101589.69;5006234;28;20079;-74
2024/01/14 00:02:38;;;;;;;46.50;18.70;;;;;;;3.05;100.00;101582.66;5020326;28;20037;-74
2024/01/14 00:05:08;;;;;;;39.13;16.52;;;;;;;3.05;100.00;101584.47;5020864;28;20065;-74
2024/01/14 00:07:36;;;;;;;42.50;15.98;;;;;;;3.02;100.00;101577.56;5053838;28;20029;-74
2024/01/14 00:10:03;;;;;;;45.53;16.27;;;;;;;3.01;100.00;101575.84;5021132;28;20033;-74
2024/01/14 00:12:34;;;;;;;44.20;16.70;;;;;;;2.99;100.00;101575.13;5055247;28;20032;-74
2024/01/14 00:15:00;;;;;;;46.92;17.10;;;;;;;2.98;100.00;101564.59;5020876;28;20028;-74
2024/01/14 00:17:26;;;;;;;42.10;16.80;;;;;;;2.98;100.00;101573.41;5020546;28;20460;-74
2024/01/14 00:19:51;;;;;;;49.42;16.17;;;;;;;2.99;100.00;101567.16;5020806;28;20045;-74
2024/01/14 00:22:17;;;;;;;45.58;17.40;;;;;;;2.98;100.00;101568.09;5037658;28;20092;-74
2024/01/14 00:24:44;;;;;;;43.45;16.60;;;;;;;2.96;100.00;101570.00;5053653;28;20036;-74
2024/01/14 00:27:10;;;;;;;43.97;16.77;;;;;;;3.00;100.00;101563.53;5053335;28;20074;-74
2024/01/14 00:29:36;;;;;;;54.05;18.80;;;;;;;3.04;100.00;101564.16;5020530;28;20037;-74
2024/01/14 00:32:02;;;;;;;73.70;20.58;;;;;;;3.01;100.00;101559.91;5036356;28;20044;-74
2024/01/14 00:34:28;;;;;;;56.15;16.40;;;;;;;3.03;100.00;101562.47;5020688;28;20041;-74
2024/01/14 00:36:53;;;;;;;80.53;16.17;;;;;;;3.01;100.00;101557.25;5020448;28;20037;-75
2024/01/14 00:39:19;;;;;;;76.25;19.08;;;;;;;3.07;100.00;101556.00;5037192;28;20143;-74
2024/01/14 00:41:45;;;;;;;57.72;17.52;;;;;;;3.04;100.00;101549.09;5020560;28;20040;-75
2024/01/14 00:44:10;;;;;;;56.33;18.48;;;;;;;3.06;100.00;101546.31;5021134;28;20463;-74
2024/01/14 00:46:37;;;;;;;59.88;16.50;;;;;;;3.05;100.00;101540.16;5020293;28;20460;-74
2024/01/14 00:49:03;;;;;;;48.58;16.83;;;;;;;3.07;100.00;101542.72;5020172;28;20044;-74
2024/01/14 00:51:29;;;;;;;77.75;21.42;;;;;;;3.07;100.00;101538.25;5036549;28;20033;-74
2024/01/14 00:53:54;;;;;;;87.35;21.08;;;;;;;3.07;100.00;101540.91;5020102;28;20029;-74
2024/01/14 00:56:20;;;;;;;60.92;18.63;;;;;;;3.09;100.00;101532.81;5020009;28;20032;-75
2024/01/14 00:58:45;;;;;;;56.53;16.98;;;;;;;3.14;100.00;101537.81;5020098;28;20033;-75
2024/01/14 01:01:11;;;;;;;60.63;18.77;;;;;;;3.15;100.00;101529.75;5020019;28;20131;-75
2024/01/14 01:03:37;;;;;;;78.80;18.23;;;;;;;3.18;100.00;101526.03;5036349;28;20048;-74
2024/01/14 01:06:02;;;;;;;70.20;18.45;;;;;;;3.19;100.00;101525.03;5019975;28;20045;-74
2024/01/14 01:08:28;;;;;;;80.18;19.40;;;;;;;3.19;100.00;101515.25;5036289;28;20056;-75
2024/01/14 01:10:54;;;;;;;64.82;18.63;;;;;;;3.19;100.00;101511.75;5019795;28;20029;-74
2024/01/14 01:13:19;;;;;;;56.80;18.52;;;;;;;3.18;100.00;101510.91;5035877;28;20041;-75
2024/01/14 01:15:45;;;;;;;52.70;18.77;;;;;;;3.21;100.00;101512.50;5019801;28;20056;-75
2024/01/14 01:18:11;;;;;;;61.50;17.83;;;;;;;3.19;100.00;101515.25;5020127;28;20029;-75
2024/01/14 01:20:36;;;;;;;64.85;19.33;;;;;;;3.20;100.00;101510.78;5020247;28;20040;-75
2024/01/14 01:23:02;;;;;;;66.78;18.63;;;;;;;3.21;100.00;101507.19;5019654;28;20497;-75
2024/01/14 01:25:28;;;;;;;40.42;14.15;;;;;;;3.21;100.00;101505.38;5036031;28;20029;-75
2024/01/14 01:27:54;;;;;;;104.07;32.65;;;;;;;3.22;100.00;101504.41;5019570;28;20063;-75
2024/01/14 01:30:19;;;;;;;41.60;16.35;;;;;;;3.25;100.00;101503.34;5051941;28;20036;-75
2024/01/14 01:32:46;;;;;;;36.65;14.93;;;;;;;3.25;100.00;101493.53;5035707;28;20451;-75
2024/01/14 01:35:12;;;;;;;90.82;24.90;;;;;;;3.26;100.00;101497.94;5035873;28;20037;-75
2024/01/14 01:37:37;;;;;;;68.18;22.33;;;;;;;3.26;100.00;101491.75;5019309;28;20125;-75
2024/01/14 01:40:04;;;;;;;76.28;21.75;;;;;;;3.25;100.00;101487.38;5019476;28;20033;-75
2024/01/14 01:42:30;;;;;;;50.45;18.23;;;;;;;3.26;100.00;101494.41;5035895;28;20120;-75
2024/01/14 01:44:56;;;;;;;39.67;15.20;;;;;;;3.26;100.00;101487.28;5052416;28;20075;-75
2024/01/14 01:47:22;;;;;;;46.97;16.55;;;;;;;3.26;100.00;101486.44;5020042;28;20033;-75
2024/01/14 01:49:48;;;;;;;41.25;15.15;;;;;;;3.25;100.00;101482.06;5019471;28;20379;-74
2024/01/14 01:52:14;;;;;;;36.10;14.27;;;;;;;3.23;100.00;101478.69;5019431;28;20078;-75
2024/01/14 01:54:40;;;;;;;45.10;13.43;;;;;;;3.22;100.00;101477.81;5019418;28;20075;-75
2024/01/14 01:57:07;;;;;;;33.78;13.05;;;;;;;3.18;100.00;101476.38;5035582;28;20032;-75
2024/01/14 01:59:33;;;;;;;52.88;14.48;;;;;;;3.17;100.00;101468.50;5019314;28;20044;-75
2024/01/14 02:02:00;;;;;;;36.95;11.63;;;;;;;3.16;100.00;101482.75;5035215;28;20372;-75
2024/01/14 02:04:26;;;;;;;37.72;12.18;;;;;;;3.13;100.00;101472.34;5052239;28;20029;-75
2024/01/14 02:06:52;;;;;;;30.92;11.23;;;;;;;3.12;100.00;101473.28;5035355;28;20036;-75
2024/01/14 02:09:18;;;;;;;30.00;11.05;;;;;;;3.08;100.00;101465.53;5019312;28;20029;-75
2024/01/14 02:11:44;;;;;;;32.05;12.00;;;;;;;3.07;100.00;101463.84;5035471;28;20586;-75
2024/01/14 02:14:10;;;;;;;31.75;11.55;;;;;;;3.03;100.00;101467.69;5019669;28;20033;-75
2024/01/14 02:16:35;;;;;;;24.88;9.57;;;;;;;3.04;100.00;101463.19;5019578;28;20029;-75
2024/01/14 02:19:01;;;;;;;20.88;8.43;;;;;;;3.04;100.00;101456.09;5019171;28;20425;-75
2024/01/14 02:21:32;;;;;;;26.02;9.05;;;;;;;3.06;100.00;101455.97;5019125;28;20037;-75
2024/01/14 02:24:16;;;;;;;21.30;9.15;;;;;;;3.02;100.00;101457.19;5003608;28;20032;-75
2024/01/14 02:26:42;;;;;;;21.70;9.43;;;;;;;3.03;100.00;101458.84;5038399;28;20141;-75
2024/01/14 02:29:08;;;;;;;21.95;11.18;;;;;;;3.01;100.00;101456.31;5023120;28;20551;-75
2024/01/14 02:31:34;;;;;;;22.45;9.75;;;;;;;2.99;100.00;101460.91;5022756;28;20135;-75
2024/01/14 02:33:59;;;;;;;26.70;9.85;;;;;;;2.98;100.00;101461.84;5039324;28;20126;-75
2024/01/14 02:36:26;;;;;;;25.58;9.50;;;;;;;2.98;100.00;101461.00;5039155;28;20044;-75
2024/01/14 02:38:51;;;;;;;17.60;7.80;;;;;;;2.89;100.00;101454.53;5022618;28;20028;-75
2024/01/14 02:41:17;;;;;;;19.63;9.00;;;;;;;2.81;100.00;101448.94;5039089;28;20035;-75
2024/01/14 02:43:43;;;;;;;14.23;6.30;;;;;;;2.79;100.00;101449.03;5022563;28;20111;-75
2024/01/14 02:46:08;;;;;;;10.10;5.95;;;;;;;2.78;100.00;101442.03;5022443;28;20044;-75
2024/01/14 02:48:34;;;;;;;12.63;5.45;;;;;;;2.78;100.00;101443.81;5022297;28;20029;-74
2024/01/14 02:50:59;;;;;;;12.63;5.80;;;;;;;2.76;100.00;101435.13;5022778;28;20486;-75
2024/01/14 02:53:25;;;;;;;12.40;5.13;;;;;;;2.75;100.00;101436.94;5022417;28;20384;-75
2024/01/14 02:55:51;;;;;;;11.02;4.57;;;;;;;2.73;100.00;101438.00;5038723;28;20095;-75
2024/01/14 02:58:16;;;;;;;9.05;3.97;;;;;;;2.71;100.00;101429.28;5038463;28;20025;-75
2024/01/14 03:00:42;;;;;;;5.50;3.60;;;;;;;2.68;100.00;101432.16;5054820;28;20067;-75
2024/01/14 03:03:08;;;;;;;4.97;3.08;;;;;;;2.65;100.00;101435.88;5038625;28;20043;-75
2024/01/14 03:05:33;;;;;;;8.80;3.58;;;;;;;2.58;100.00;101438.09;5022197;28;20068;-75
2024/01/14 03:07:59;;;;;;;5.45;3.58;;;;;;;2.55;100.00;101440.97;5021907;28;20372;-75
2024/01/14 03:10:25;;;;;;;3.80;2.42;;;;;;;2.51;100.00;101431.50;5022623;28;20067;-75
2024/01/14 03:12:50;;;;;;;7.15;3.30;;;;;;;2.44;100.00;101432.06;5021899;28;20479;-75
2024/01/14 03:15:16;;;;;;;9.02;2.90;;;;;;;2.38;100.00;101436.84;5038409;28;20513;-75
2024/01/14 03:17:41;;;;;;;7.50;2.67;;;;;;;2.36;100.00;101436.09;5037863;28;20037;-75
2024/01/14 03:20:08;;;;;;;6.38;2.45;;;;;;;2.32;100.00;101439.06;5021899;28;20040;-75
2024/01/14 03:22:35;;;;;;;8.10;2.38;;;;;;;2.24;100.00;101428.13;5038479;28;20025;-75
2024/01/14 03:25:00;;;;;;;6.28;3.03;;;;;;;2.17;100.00;101425.91;5022079;28;20033;-75
2024/01/14 03:27:26;;;;;;;5.10;3.00;;;;;;;2.18;100.00;101427.59;5021752;28;20036;-75
2024/01/14 03:29:52;;;;;;;6.93;2.72;;;;;;;2.17;100.00;101425.03;5038136;28;20130;-75
2024/01/14 03:32:17;;;;;;;6.82;3.30;;;;;;;2.16;100.00;101418.88;5021474;28;20040;-75
2024/01/14 03:34:43;;;;;;;5.70;3.00;;;;;;;2.13;100.00;101411.13;5038273;28;20065;-75
2024/01/14 03:37:09;;;;;;;6.45;3.08;;;;;;;2.09;100.00;101412.31;5037549;28;20029;-75
2024/01/14 03:39:34;;;;;;;5.43;2.72;;;;;;;2.06;100.00;101407.19;5021546;28;20529;-75
2024/01/14 03:42:00;;;;;;;7.78;3.00;;;;;;;2.04;100.00;101409.13;5021504;28;20033;-75
2024/01/14 03:44:26;;;;;;;6.78;3.88;;;;;;;2.04;100.00;101409.13;5022358;28;20075;-75
2024/01/14 03:46:51;;;;;;;5.55;3.08;;;;;;;1.99;100.00;101408.59;5021638;28;20531;-75
2024/01/14 03:49:17;;;;;;;6.55;3.55;;;;;;;1.93;100.00;101414.28;5037781;28;20033;-75
2024/01/14 03:51:43;;;;;;;6.25;3.15;;;;;;;1.89;100.00;101404.88;5037777;28;20048;-75
2024/01/14 03:54:08;;;;;;;3.47;2.72;;;;;;;1.84;100.00;101406.97;5037754;28;20048;-75
2024/01/14 03:56:34;;;;;;;5.40;3.03;;;;;;;1.76;100.00;101399.53;5021119;28;20394;-75
2024/01/14 03:59:00;;;;;;;4.60;2.88;;;;;;;1.72;100.00;101398.03;5021194;28;20047;-75
2024/01/14 04:01:26;;;;;;;5.03;2.88;;;;;;;1.69;100.00;101398.25;5037557;28;20032;-75
2024/01/14 04:03:51;;;;;;;3.45;2.33;;;;;;;1.64;100.00;101400.34;5020968;28;20076;-75
2024/01/14 04:06:22;;;;;;;6.28;2.80;;;;;;;1.58;100.00;101396.31;5037536;28;20383;-75
2024/01/14 04:08:48;;;;;;;4.13;1.92;;;;;;;1.55;100.00;101388.56;5021121;28;20045;-75
2024/01/14 04:11:13;;;;;;;4.57;2.20;;;;;;;1.57;100.00;101391.97;5020875;28;20039;-74
2024/01/14 04:13:39;;;;;;;4.85;2.45;;;;;;;1.58;100.00;101384.84;5020872;28;20052;-74
2024/01/14 04:16:07;;;;;;;2.55;2.10;;;;;;;1.53;100.00;101393.09;5020852;28;20044;-74
2024/01/14 04:18:35;;;;;;;6.47;1.80;;;;;;;1.43;100.00;101386.72;5036863;28;20490;-74
2024/01/14 04:21:00;;;;;;;1.58;1.15;;;;;;;1.26;100.00;101388.69;5020776;28;20115;-75
2024/01/14 04:23:26;;;;;;;4.22;1.45;;;;;;;1.07;100.00;101381.09;5021523;28;20067;-75
2024/01/14 04:25:52;;;;;;;4.53;1.55;;;;;;;0.90;100.00;101383.97;5036921;28;20459;-75
2024/01/14 04:28:18;;;;;;;2.83;1.38;;;;;;;0.78;100.00;101379.47;5037024;28;20037;-75
2024/01/14 04:30:44;;;;;;;0.90;0.90;;;;;;;0.60;100.00;101378.81;5020197;28;20111;-75
2024/01/14 04:33:10;;;;;;;1.98;1.35;;;;;;;0.43;100.00;101379.88;5020623;28;20040;-75
2024/01/14 04:35:36;;;;;;;6.25;1.70;;;;;;;0.32;100.00;101379.66;5020977;28;20407;-75
2024/01/14 04:38:01;;;;;;;1.77;1.10;;;;;;;0.22;100.00;101376.75;5052867;28;20024;-74
2024/01/14 04:40:27;;;;;;;1.60;1.10;;;;;;;0.18;100.00;101383.16;5036802;28;20540;-75
2024/01/14 04:42:52;;;;;;;1.88;1.35;;;;;;;0.07;100.00;101377.69;5020317;28;20041;-75
2024/01/14 04:45:18;;;;;;;5.22;0.90;;;;;;;-0.10;100.00;101381.34;5020348;28;20037;-75
2024/01/14 04:47:44;;;;;;;1.48;1.15;;;;;;;-0.29;100.00;101371.88;5019795;28;20033;-74
2024/01/14 04:50:10;;;;;;;2.65;1.38;;;;;;;-0.45;100.00;101374.56;5036652;28;20039;-75
2024/01/14 04:52:36;;;;;;;1.52;1.10;;;;;;;-0.57;100.00;101377.06;5036783;28;20392;-75
2024/01/14 04:55:02;;;;;;;1.17;1.00;;;;;;;-0.76;100.00;101369.38;5020088;28;20078;-74
2024/01/14 04:57:28;;;;;;;0.75;0.75;;;;;;;-0.92;100.00;101370.22;5019962;28;20119;-74
2024/01/14 04:59:55;;;;;;;0.85;0.80;;;;;;;-0.97;100.00;101366.16;5036710;28;20036;-74
2024/01/14 05:02:20;;;;;;;2.65;1.23;;;;;;;-0.97;100.00;101366.16;5036395;28;20033;-75
2024/01/14 05:04:46;;;;;;;1.45;0.70;;;;;;;-1.31;100.00;101360.13;5020041;28;20033;-74
2024/01/14 05:07:12;;;;;;;0.73;0.73;;;;;;;-1.48;100.00;101358.41;5019968;28;20039;-74
2024/01/14 05:09:37;;;;;;;1.30;0.93;;;;;;;-1.69;100.00;101341.09;5019886;28;20032;-74
2024/01/14 05:12:03;;;;;;;2.00;1.30;;;;;;;-1.87;100.00;101356.97;5019848;28;20052;-74
2024/01/14 05:14:29;;;;;;;2.65;1.05;;;;;;;-2.00;100.00;101351.50;5019857;28;20033;-74
2024/01/14 05:16:54;;;;;;;2.00;1.13;;;;;;;-1.95;100.00;101342.50;5035860;28;20036;-75
2024/01/14 05:19:20;;;;;;;1.20;1.10;;;;;;;-1.98;100.00;101338.25;5019757;28;20040;-74
2024/01/14 05:21:46;;;;;;;0.98;0.90;;;;;;;-1.72;100.00;101338.63;5019775;28;20040;-75
2024/01/14 05:24:11;;;;;;;2.05;0.98;;;;;;;-1.71;100.00;101335.06;5019742;28;20045;-74
2024/01/14 05:26:40;;;;;;;3.42;1.45;;;;;;;-1.80;100.00;101336.41;5019705;28;20120;-75
2024/01/14 05:29:06;;;;;;;1.50;0.90;;;;;;;-1.79;100.00;101332.84;5019705;28;20025;-75
2024/01/14 05:31:31;;;;;;;1.45;1.00;;;;;;;-1.67;100.00;101341.88;5019667;28;20056;-75
2024/01/14 05:33:57;;;;;;;1.90;0.95;;;;;;;-1.59;100.00;101337.03;5035989;28;20150;-75
2024/01/14 05:36:23;;;;;;;2.67;1.77;;;;;;;-1.35;100.00;101329.53;5053538;28;20033;-75
2024/01/14 05:38:48;;;;;;;2.28;1.70;;;;;;;-1.13;100.00;101327.44;5019530;28;20033;-75
2024/01/14 05:41:14;;;;;;;5.53;2.72;;;;;;;-0.93;100.00;101328.06;5019560;28;20044;-75
2024/01/14 05:43:40;;;;;;;3.63;2.75;;;;;;;-0.73;100.00;101325.13;5019273;28;20041;-75
2024/01/14 05:46:06;;;;;;;2.92;1.90;;;;;;;-0.53;100.00;101334.56;5019480;28;20110;-75
2024/01/14 05:48:31;;;;;;;5.60;2.85;;;;;;;-0.48;100.00;101319.28;5019402;28;20361;-75
2024/01/14 05:50:57;;;;;;;4.38;3.28;;;;;;;-0.33;100.00;101332.50;5019467;28;20037;-75
2024/01/14 05:53:23;;;;;;;5.93;3.92;;;;;;;-0.25;100.00;101324.97;5019532;28;20045;-75
2024/01/14 05:55:49;;;;;;;5.45;2.85;;;;;;;-0.15;100.00;101334.06;5019371;28;20044;-75
2024/01/14 05:58:14;;;;;;;4.75;2.30;;;;;;;-0.04;100.00;101328.94;5019135;28;20083;-75
2024/01/14 06:00:40;;;;;;;7.53;3.42;;;;;;;0.03;100.00;101328.56;5022386;28;20047;-75
2024/01/14 06:03:07;;;;;;;6.75;3.20;;;;;;;0.04;100.00;101325.00;5023009;28;20033;-75
2024/01/14 06:05:32;;;;;;;4.55;3.33;;;;;;;0.03;100.00;101328.56;5056207;28;20035;-75
2024/01/14 06:07:58;;;;;;;3.58;2.08;;;;;;;0.02;100.00;101324.25;5023245;28;20033;-75
2024/01/14 06:10:25;;;;;;;6.15;3.33;;;;;;;0.07;100.00;101323.00;5023184;28;20028;-75
2024/01/14 06:12:51;;;;;;;4.70;3.10;;;;;;;0.12;100.00;101318.28;5039592;28;20086;-75
2024/01/14 06:15:16;;;;;;;4.25;2.45;;;;;;;0.15;100.00;101320.75;5023086;28;20392;-75
2024/01/14 06:17:42;;;;;;;4.20;2.47;;;;;;;0.20;100.00;101323.09;5039830;28;20040;-75
2024/01/14 06:20:09;;;;;;;2.17;1.60;;;;;;;0.25;100.00;101323.66;5006470;28;20025;-75
2024/01/14 06:22:35;;;;;;;2.28;1.45;;;;;;;0.31;100.00;101325.91;5039517;28;20528;-75
2024/01/14 06:25:01;;;;;;;2.60;1.85;;;;;;;0.38;100.00;101324.59;5022927;28;20131;-75
2024/01/14 06:27:26;;;;;;;1.67;1.38;;;;;;;0.42;100.00;101323.47;5022924;28;20036;-75
2024/01/14 06:29:52;;;;;;;0.90;0.90;;;;;;;0.48;100.00;101318.72;5022903;28;20025;-75
2024/01/14 06:32:18;;;;;;;5.03;1.05;;;;;;;0.55;100.00;101312.09;5022643;28;20037;-75
2024/01/14 06:34:44;;;;;;;1.23;0.82;;;;;;;0.63;100.00;101312.47;5022859;28;20032;-75
2024/01/14 06:37:10;;;;;;;1.38;1.20;;;;;;;0.65;100.00;101306.13;5022848;28;20033;-75
2024/01/14 06:39:35;;;;;;;1.15;0.82;;;;;;;0.67;100.00;101303.38;5022410;28;20033;-75
2024/01/14 06:42:01;;;;;;;1.40;0.90;;;;;;;0.65;100.00;101300.81;5022682;28;20068;-75
2024/01/14 06:44:26;;;;;;;1.05;1.02;;;;;;;0.63;100.00;101301.88;5022587;28;20041;-75
2024/01/14 06:46:52;;;;;;;2.92;1.45;;;;;;;0.63;100.00;101309.81;5038916;28;20029;-75
2024/01/14 06:49:18;;;;;;;3.67;1.70;;;;;;;0.58;100.00;101310.13;5022501;28;20048;-75
2024/01/14 06:51:44;;;;;;;3.05;1.60;;;;;;;0.48;100.00;101303.72;5055329;28;20505;-75
2024/01/14 06:54:11;;;;;;;1.15;1.05;;;;;;;0.31;100.00;101307.41;5038696;28;20041;-75
2024/01/14 06:56:47;;;;;;;1.60;1.00;;;;;;;0.17;100.00;101310.06;5022279;28;20490;-75
2024/01/14 06:59:19;;;;;;;1.10;1.00;;;;;;;0.03;100.00;101308.28;5038666;28;20468;-75
2024/01/14 07:01:45;;;;;;;2.25;1.20;;;;;;;-0.08;100.00;101295.72;5022328;28;20041;-75
2024/01/14 07:04:12;;;;;;;2.22;1.00;;;;;;;-0.06;100.00;101299.09;5055125;28;20029;-75
2024/01/14 07:06:38;;;;;;;1.48;1.02;;;;;;;0.03;100.00;101296.84;5021836;28;20025;-75
2024/01/14 07:09:04;;;;;;;2.88;1.40;;;;;;;0.09;100.00;101291.19;5038318;28;20043;-74
2024/01/14 07:11:30;;;;;;;0.80;0.80;;;;;;;0.14;100.00;101299.69;5054000;28;20021;-74
2024/01/14 07:13:56;;;;;;;0.73;0.68;;;;;;;0.32;100.00;101298.53;5005794;28;20037;-75
2024/01/14 07:16:22;;;;;;;0.90;0.80;;;;;;;0.43;100.00;101288.13;5021731;28;20051;-74
2024/01/14 07:18:47;;;;;;;0.63;0.63;;;;;;;0.46;100.00;101297.66;5038362;28;20365;-75
2024/01/14 07:21:13;;;;;;;0.70;0.70;;;;;;;0.59;100.00;101295.09;5021916;28;20044;-74
2024/01/14 07:24:08;;;;;;;;;;;;;;;;;;;;;
2024/01/14 07:27:05;;;;;;;;;;;;;;;;;;;;;
2024/01/14 07:29:51;;;;;;;2.65;1.10;;;;;;;0.61;100.00;101301.16;5018892;28;20047;-75
2024/01/14 07:32:17;;;;;;;1.20;0.88;;;;;;;0.54;100.00;101291.88;5037949;28;20375;-74
2024/01/14 07:34:42;;;;;;;2.53;1.17;;;;;;;0.52;100.00;101293.78;5021708;28;20462;-75
2024/01/14 07:37:08;;;;;;;1.33;1.23;;;;;;;0.39;100.00;101289.25;5021524;28;20060;-74
2024/01/14 07:39:34;;;;;;;4.68;1.20;;;;;;;0.33;100.00;101294.94;5021601;28;20039;-75
2024/01/14 07:41:59;;;;;;;0.90;0.90;;;;;;;0.31;100.00;101295.97;5021540;28;20043;-75
2024/01/14 07:44:25;;;;;;;1.60;1.05;;;;;;;0.36;100.00;101286.81;5021489;28;20542;-75
2024/01/14 07:46:51;;;;;;;1.27;1.08;;;;;;;0.34;100.00;101288.69;5037735;28;20033;-75
2024/01/14 07:49:16;;;;;;;4.00;1.23;;;;;;;0.25;100.00;101285.81;5037974;28;20039;-74
2024/01/14 07:51:42;;;;;;;1.75;1.23;;;;;;;-0.08;100.00;101279.88;5037298;28;20025;-75
2024/01/14 07:54:08;;;;;;;1.90;1.15;;;;;;;-0.42;100.00;101290.75;5021431;28;20119;-75
2024/01/14 07:56:33;;;;;;;1.02;0.90;;;;;;;-0.63;100.00;101280.56;5020925;28;20510;-75
2024/01/14 07:58:59;;;;;;;1.95;1.23;;;;;;;-0.81;100.00;101289.56;5037647;28;20032;-75
2024/01/14 08:01:25;;;;;;;1.48;1.17;;;;;;;-0.94;100.00;101290.25;5021152;28;20044;-75
2024/01/14 08:03:50;;;;;;;1.50;1.15;;;;;;;-1.01;100.00;101285.44;5021158;28;20075;-75
2024/01/14 08:06:22;;;;;;;6.85;4.88;;;;;;;-1.06;100.00;101280.41;5053657;28;20463;-75
2024/01/14 08:08:47;;;;;;;2.47;1.90;;;;;;;-1.14;100.00;101290.56;5037747;28;20040;-75
2024/01/14 08:11:14;;;;;;;3.85;2.40;;;;;;;-1.29;100.00;101280.91;5036992;28;20032;-75
2024/01/14 08:13:39;;;;;;;1.70;1.40;;;;;;;-1.38;100.00;101283.09;5037415;28;20040;-75
2024/01/14 08:16:05;;;;;;;2.60;1.70;;;;;;;-1.33;100.00;101283.69;5020913;28;20529;-75
2024/01/14 08:18:32;;;;;;;2.50;1.80;;;;;;;-1.36;100.00;101291.78;5020407;28;20036;-75
2024/01/14 08:20:57;;;;;;;1.65;1.33;;;;;;;-1.37;100.00;101294.50;5020914;28;20123;-75
2024/01/14 08:23:23;;;;;;;1.90;1.33;;;;;;;-1.31;100.00;101298.59;5020253;28;20535;-75
2024/01/14 08:25:49;;;;;;;3.95;2.10;;;;;;;-1.18;100.00;101303.09;5020714;28;20383;-75
2024/01/14 08:28:14;;;;;;;3.35;2.22;;;;;;;-1.05;100.00;101302.41;5020701;28;20430;-75
2024/01/14 08:30:40;;;;;;;2.63;2.00;;;;;;;-0.96;100.00;101304.50;5020587;28;20119;-75
2024/01/14 08:33:06;;;;;;;1.52;1.40;;;;;;;-0.92;100.00;101308.66;5020475;28;20058;-75
2024/01/14 08:35:31;;;;;;;2.28;1.42;;;;;;;-0.91;100.00;101315.63;5020554;28;20080;-75
2024/01/14 08:37:57;;;;;;;1.08;0.90;;;;;;;-0.89;100.00;101314.63;5020171;28;20024;-75
2024/01/14 08:40:23;;;;;;;1.90;1.25;;;;;;;-0.77;100.00;101306.91;5020420;28;20064;-75
2024/01/14 08:42:49;;;;;;;2.33;1.15;;;;;;;-0.73;100.00;101311.94;5036339;28;20548;-75
2024/01/14 08:45:16;;;;;;;1.50;1.05;;;;;;;-0.70;100.00;101303.81;5020313;28;20044;-75
2024/01/14 08:47:42;;;;;;;1.00;0.82;;;;;;;-0.67;100.00;101305.44;5036550;28;20052;-75
2024/01/14 08:50:11;;;;;;;6.22;1.30;;;;;;;-0.57;100.00;101303.97;5036660;28;20029;-75
2024/01/14 08:52:38;;;;;;;4.15;2.53;;;;;;;-0.47;100.00;101310.41;5021048;28;20084;-75
2024/01/14 08:55:08;;;;;;;5.53;1.85;;;;;;;-0.48;100.00;101313.13;5036553;28;20091;-75
2024/01/14 08:57:35;;;;;;;1.58;1.35;;;;;;;-0.60;100.00;101301.50;5020539;28;20055;-75
2024/01/14 09:00:00;;;;;;;3.03;2.53;;;;;;;-0.66;100.00;101307.16;5052698;28;20033;-75
2024/01/14 09:02:26;;;;;;;7.00;2.75;;;;;;;-0.81;100.00;101306.25;5020275;28;20068;-75
2024/01/14 09:04:52;;;;;;;3.50;2.55;;;;;;;-0.97;100.00;101308.94;5019887;28;20032;-75
2024/01/14 09:07:18;;;;;;;5.35;2.65;;;;;;;-1.07;100.00;101305.09;5052722;28;20032;-75
2024/01/14 09:09:43;;;;;;;3.50;2.25;;;;;;;-1.17;100.00;101304.78;5019397;28;20033;-75
2024/01/14 09:12:10;;;;;;;4.57;3.22;;;;;;;-1.35;100.00;101309.31;5036129;28;20033;-75
2024/01/14 09:14:35;;;;;;;2.97;2.20;;;;;;;-1.57;100.00;101308.78;5052326;28;20025;-75
2024/01/14 09:17:01;;;;;;;2.97;1.90;;;;;;;-1.58;100.00;101312.38;5019662;28;20036;-75
2024/01/14 09:19:28;;;;;;;2.63;1.38;;;;;;;-1.52;100.00;101312.03;5019711;28;20041;-75
2024/01/14 09:21:54;;;;;;;1.85;1.48;;;;;;;-1.21;100.00;101310.34;5036469;28;20025;-75
2024/01/14 09:24:20;;;;;;;2.08;1.75;;;;;;;-0.85;100.00;101314.44;5019718;28;20037;-75
2024/01/14 09:26:46;;;;;;;1.10;1.00;;;;;;;-0.58;100.00;101312.84;5019480;28;20090;-75
2024/01/14 09:29:11;;;;;;;1.88;1.27;;;;;;;-0.38;100.00;101309.00;5035681;28;20090;-75
2024/01/14 09:31:37;;;;;;;1.55;1.08;;;;;;;-0.21;100.00;101302.72;5019496;28;20064;-75
2024/01/14 09:34:03;;;;;;;4.63;1.20;;;;;;;-0.06;100.00;101299.09;5019268;28;20045;-75
2024/01/14 09:36:30;;;;;;;3.08;1.75;;;;;;;0.10;100.00;101308.75;5019445;28;20047;-75
2024/01/14 09:38:56;;;;;;;2.08;1.67;;;;;;;0.21;100.00;101296.56;5020329;28;20079;-75
2024/01/14 09:41:34;;;;;;;3.85;1.85;;;;;;;0.34;100.00;101304.56;5019109;28;20486;-75
2024/01/14 09:44:02;;;;;;;2.05;1.63;;;;;;;0.49;100.00;101302.75;5052354;28;20083;-75
2024/01/14 09:46:29;;;;;;;4.80;2.20;;;;;;;0.66;100.00;101306.97;5018434;28;20152;-77
2024/01/14 09:48:55;;;;;;;4.00;2.58;;;;;;;0.79;100.00;101296.44;5017233;28;20030;-77
2024/01/14 09:51:31;;;;;;;4.35;3.08;;;;;;;0.83;100.00;101292.66;5035973;28;20114;-77
2024/01/14 09:53:58;;;;;;;5.45;3.90;;;;;;;0.79;100.00;101293.78;5035755;28;20029;-77
2024/01/14 09:56:24;;;;;;;5.03;3.53;;;;;;;0.59;100.00;101287.16;5035390;28;20057;-76
2024/01/14 09:58:53;;;;;;;12.88;8.32;;;;;;;0.38;100.00;101281.44;5035318;28;20080;-76
2024/01/14 10:01:22;;;;;;;10.88;8.20;;;;;;;0.39;100.00;101280.47;5036153;28;20044;-77
2024/01/14 10:03:51;;;;;;;12.05;8.85;;;;;;;0.48;100.00;101281.69;5035604;28;20040;-77
2024/01/14 10:06:17;;;;;;;12.82;9.18;;;;;;;0.51;100.00;101292.94;5019144;28;20052;-77
2024/01/14 10:08:43;;;;;;;7.57;5.28;;;;;;;0.58;100.00;101280.16;5035429;28;20487;-77
2024/01/14 10:11:08;;;;;;;9.73;5.68;;;;;;;1.08;100.00;101283.94;5034935;28;20467;-77
2024/01/14 10:13:34;;;;;;;4.00;2.55;;;;;;;1.18;100.00;101292.97;5019709;28;20041;-77
2024/01/14 10:16:02;;;;;;;4.65;3.25;;;;;;;1.40;100.00;101286.22;5018766;28;20475;-77
2024/01/14 10:18:28;;;;;;;3.67;2.53;;;;;;;1.62;100.00;101286.47;5035478;28;20025;-77
2024/01/14 10:20:55;;;;;;;6.70;2.70;;;;;;;2.01;100.00;101283.81;5035506;28;20037;-77
2024/01/14 10:23:23;;;;;;;9.73;6.72;;;;;;;3.35;100.00;101289.06;5035430;28;20029;-77
2024/01/14 10:25:49;;;;;;;11.40;6.13;;;;;;;4.70;100.00;101280.28;5035616;28;20035;-77
2024/01/14 10:28:17;;;;;;;14.13;9.52;;;;;;;5.83;100.00;101283.28;5035132;28;20064;-77
2024/01/14 10:30:43;;;;;;;12.35;7.43;;;;;;;7.05;100.00;101285.78;5051766;28;20037;-77
2024/01/14 10:33:09;;;;;;;8.95;5.97;;;;;;;7.41;100.00;101283.41;5035348;28;20045;-77
2024/01/14 10:35:35;;;;;;;8.27;5.35;;;;;;;6.58;100.00;101288.22;5018865;28;20025;-77
2024/01/14 10:38:01;;;;;;;6.30;2.88;;;;;;;5.44;100.00;101291.03;5035059;28;20071;-77
2024/01/14 10:40:27;;;;;;;4.70;3.70;;;;;;;4.55;100.00;101291.22;5051370;28;20083;-77
2024/01/14 10:42:52;;;;;;;7.53;3.85;;;;;;;4.14;100.00;101281.22;5018846;28;20472;-77
2024/01/14 10:45:18;;;;;;;3.97;2.85;;;;;;;3.90;100.00;101292.81;5018827;28;20376;-77
2024/01/14 10:47:47;;;;;;;8.30;3.53;;;;;;;3.77;100.00;101286.75;5022082;28;20040;-77
2024/01/14 10:50:17;;;;;;;9.48;4.25;;;;;;;3.66;100.00;101295.56;5039228;28;20037;-77
2024/01/14 10:52:52;;;;;;;6.93;3.45;;;;;;;3.66;100.00;101295.56;5055219;28;20032;-77
2024/01/14 10:55:42;;;;;;;3.65;2.25;;;;;;;3.63;100.00;101289.63;5039236;28;20068;-78
2024/01/14 10:58:13;;;;;;;3.40;2.38;;;;;;;3.58;100.00;101287.31;5038844;28;20033;-77
2024/01/14 11:00:40;;;;;;;5.85;2.67;;;;;;;3.60;100.00;101290.72;5041744;28;20091;-77
2024/01/14 11:03:06;;;;;;;3.90;2.35;;;;;;;3.55;100.00;101298.19;5040021;28;20039;-77
2024/01/14 11:05:33;;;;;;;7.03;4.38;;;;;;;3.48;100.00;101292.50;5039116;28;20102;-77
2024/01/14 11:08:02;;;;;;;7.47;5.63;;;;;;;3.47;100.00;101293.47;5038258;28;20057;-77
2024/01/14 11:10:28;;;;;;;4.68;3.45;;;;;;;3.45;100.00;101287.41;5038573;28;20117;-77
2024/01/14 11:13:07;;;;;;;4.80;3.58;;;;;;;3.63;100.00;101286.97;5038421;28;20029;-76
2024/01/14 11:15:39;;;;;;;4.53;3.80;;;;;;;3.69;100.00;101292.66;5021769;28;20094;-77
2024/01/14 11:18:19;;;;;;;4.35;3.47;;;;;;;3.74;100.00;101276.34;5054573;28;20037;-78